createdAt,value
2022-08-16T00:07:22.485Z,0.11
2022-08-16T00:22:25.152Z,0.26
2022-08-16T00:37:24.593Z,0.77
2022-08-16T00:52:30.384Z,1.18
2022-08-16T01:07:22.526Z,0.91
2022-08-16T01:22:58.952Z,0.68
2022-08-16T01:37:22.538Z,0.73
2022-08-16T01:52:28.105Z,0.81
2022-08-16T02:07:23.457Z,0.82
2022-08-16T02:22:34.072Z,0.91
2022-08-16T02:37:22.557Z,0.71
2022-08-16T02:52:24.971Z,0.68
2022-08-16T03:07:27.612Z,0.73
2022-08-16T03:22:28.649Z,0.53
2022-08-16T03:37:22.491Z,0.24
2022-08-16T03:52:23.474Z,0.29
2022-08-16T04:07:22.853Z,0.62
2022-08-16T04:22:22.518Z,0.96
2022-08-16T04:37:22.654Z,1.15
2022-08-16T04:52:33.268Z,1.15
2022-08-16T05:07:22.571Z,0.63
2022-08-16T05:22:22.753Z,1.12
2022-08-16T05:37:24.559Z,1.20
2022-08-16T05:52:22.642Z,1.52
2022-08-16T06:21:01.760Z,1.37
2022-08-16T06:36:01.782Z,1.74
2022-08-16T06:51:01.966Z,1.48
2022-08-16T07:06:01.920Z,1.76
2022-08-16T07:21:02.419Z,1.83
2022-08-16T07:36:02.171Z,1.92
2022-08-16T07:51:06.886Z,1.60
2022-08-16T08:06:02.098Z,1.72
2022-08-16T08:21:02.220Z,1.62
2022-08-16T08:36:02.199Z,1.74
2022-08-16T08:51:02.857Z,2.43
2022-08-16T09:06:02.233Z,2.54
2022-08-16T09:21:02.371Z,2.20
2022-08-16T09:36:02.419Z,2.12
2022-08-16T09:51:02.345Z,2.81
2022-08-16T10:06:02.741Z,2.44
2022-08-16T10:21:02.482Z,2.13
2022-08-16T10:36:03.655Z,2.25
2022-08-16T10:51:02.719Z,2.80
2022-08-16T11:06:05.945Z,3.02
2022-08-16T11:21:03.118Z,3.19
2022-08-16T11:36:28.544Z,3.13
2022-08-16T11:51:03.480Z,4.21
2022-08-16T12:06:03.368Z,4.20
2022-08-16T12:21:03.829Z,3.90
2022-08-16T12:36:03.482Z,3.55
2022-08-16T12:51:03.947Z,4.02
2022-08-16T13:06:03.537Z,3.77
2022-08-16T13:21:03.692Z,4.16
2022-08-16T13:36:03.659Z,2.63
2022-08-16T13:51:04.231Z,2.44
2022-08-16T14:06:03.689Z,2.94
2022-08-16T14:21:03.700Z,2.86
2022-08-16T14:36:03.762Z,1.76
2022-08-16T14:51:03.691Z,1.63
2022-08-16T15:06:03.750Z,2.24
2022-08-16T15:21:04.484Z,2.70
2022-08-16T15:36:03.705Z,1.89
2022-08-16T15:51:03.975Z,2.15
2022-08-16T16:06:04.029Z,2.64
2022-08-16T16:21:03.841Z,2.92
2022-08-16T16:36:03.856Z,1.22
2022-08-16T16:51:07.318Z,1.66
2022-08-16T17:06:10.129Z,1.60
2022-08-16T17:21:04.061Z,1.70
2022-08-16T17:36:08.539Z,2.38
2022-08-16T17:51:04.095Z,1.35
2022-08-16T18:06:04.217Z,1.54
2022-08-16T18:21:04.231Z,1.04
2022-08-16T18:36:04.503Z,0.35
2022-08-16T18:51:08.414Z,0.47
2022-08-16T19:06:04.631Z,0.33
2022-08-16T19:21:04.451Z,0.05
2022-08-16T19:36:04.575Z,0.21
2022-08-16T19:51:04.602Z,0.15
2022-08-16T20:06:05.577Z,0.60
2022-08-16T20:21:04.557Z,0.63
2022-08-16T20:36:04.459Z,0.39
2022-08-16T20:51:04.602Z,0.25
2022-08-16T21:06:04.692Z,0.89
2022-08-16T21:21:04.737Z,0.99
2022-08-16T21:36:04.865Z,1.18
2022-08-16T21:51:05.056Z,1.34
2022-08-16T22:06:12.976Z,1.20
2022-08-16T22:21:04.988Z,1.30
2022-08-16T22:36:05.037Z,0.94
2022-08-16T22:51:05.005Z,1.58
2022-08-16T23:06:05.041Z,1.98
2022-08-16T23:21:05.092Z,1.04
2022-08-16T23:36:04.943Z,0.66
2022-08-16T23:51:05.198Z,0.67
